Time;durP1;ratioP1;P1;durP2;ratioP2;P2;SDS_P1;SDS_P2;PMS_P1;PMS_P2;Temp;Humidity;BMP_temperature;BMP_pressure;BME280_temperature;BME280_humidity;BME280_pressure;Samples;Min_cycle;Max_cycle;Signal;HPM_P1;HPM_P2
2023/01/31 00:00:09;;;;;;;14.13;3.07;;;7.90;45.10;;;;;;5033216;28;20223;-54
2023/01/31 00:02:35;;;;;;;8.77;2.45;;;7.90;45.00;;;;;;5032838;28;20868;-52
2023/01/31 00:05:01;;;;;;;10.20;2.73;;;7.70;45.10;;;;;;5032603;28;20232;-54
2023/01/31 00:07:26;;;;;;;9.90;1.97;;;7.60;45.50;;;;;;5032768;28;20317;-52
2023/01/31 00:09:52;;;;;;;7.63;2.20;;;7.70;45.10;;;;;;5032799;28;20162;-52
2023/01/31 00:12:18;;;;;;;7.60;2.83;;;7.70;45.10;;;;;;5032735;28;20542;-57
2023/01/31 00:14:43;;;;;;;8.10;4.23;;;7.70;45.30;;;;;;5032500;28;20188;-55
2023/01/31 00:17:09;;;;;;;11.00;2.57;;;7.70;45.10;;;;;;5032617;28;20185;-51
2023/01/31 00:19:35;;;;;;;11.60;3.47;;;7.80;44.90;;;;;;5032642;28;20209;-53
2023/01/31 00:22:00;;;;;;;10.03;2.53;;;7.80;44.80;;;;;;5032403;28;20296;-52
2023/01/31 00:24:26;;;;;;;15.77;2.97;;;7.80;44.90;;;;;;5032264;28;20199;-52
2023/01/31 00:26:55;;;;;;;13.10;2.70;;;7.90;44.90;;;;;;5032597;28;20173;-55
2023/01/31 00:29:22;;;;;;;6.25;2.47;;;7.90;45.00;;;;;;5032597;28;20549;-54
2023/01/31 00:31:49;;;;;;;5.97;1.90;;;8.00;44.70;;;;;;5032346;28;20731;-52
2023/01/31 00:34:14;;;;;;;9.60;2.50;;;8.10;44.60;;;;;;5032078;28;20223;-52
2023/01/31 00:36:40;;;;;;;12.70;3.17;;;8.10;44.50;;;;;;5032261;28;20630;-56
2023/01/31 00:39:07;;;;;;;16.53;3.20;;;8.10;44.40;;;;;;5032212;28;20220;-55
2023/01/31 00:41:34;;;;;;;14.60;2.65;;;8.20;44.30;;;;;;5032158;28;20449;-51
2023/01/31 00:44:00;;;;;;;15.45;2.95;;;8.20;44.10;;;;;;5031878;28;20251;-53
2023/01/31 00:46:26;;;;;;;9.10;2.63;;;8.30;44.10;;;;;;5032264;28;20166;-56
2023/01/31 00:48:54;;;;;;;8.73;2.17;;;8.30;43.80;;;;;;5032083;28;20907;-54
2023/01/31 00:51:21;;;;;;;6.72;2.13;;;8.20;44.30;;;;;;5032366;28;20293;-52
2023/01/31 00:53:47;;;;;;;12.20;3.50;;;8.10;44.30;;;;;;5031948;28;20190;-57
2023/01/31 00:56:18;;;;;;;8.90;2.22;;;8.10;44.70;;;;;;5032144;28;20186;-56
2023/01/31 00:58:44;;;;;;;5.07;2.70;;;8.00;44.60;;;;;;5032148;28;20547;-52
2023/01/31 01:01:39;;;;;;;8.50;2.37;;;8.10;44.70;;;;;;5032098;28;20209;-52
2023/01/31 01:04:05;;;;;;;14.23;3.40;;;8.10;44.40;;;;;;5031260;28;20203;-54
2023/01/31 01:06:31;;;;;;;10.77;1.83;;;8.10;44.30;;;;;;5032096;28;20169;-51
2023/01/31 01:08:58;;;;;;;3.05;1.73;;;8.10;44.10;;;;;;5031992;28;20257;-56
2023/01/31 01:11:30;;;;;;;3.85;1.92;;;8.10;43.70;;;;;;5032013;28;20240;-51
2023/01/31 01:13:57;;;;;;;20.00;3.45;;;8.00;43.40;;;;;;5032229;28;20600;-56
2023/01/31 01:16:26;;;;;;;5.28;2.08;;;8.10;42.90;;;;;;5035980;28;20239;-55
2023/01/31 01:18:53;;;;;;;6.55;1.20;;;8.00;42.40;;;;;;5036115;28;20543;-52
2023/01/31 01:21:28;;;;;;;5.15;2.13;;;8.00;42.30;;;;;;5035844;28;20203;-51
2023/01/31 01:23:59;;;;;;;3.33;0.93;;;8.10;42.20;;;;;;5035524;28;20201;-55
2023/01/31 01:26:28;;;;;;;4.70;1.23;;;7.90;42.00;;;;;;5035694;28;20736;-54
2023/01/31 01:28:55;;;;;;;4.10;1.05;;;7.90;42.10;;;;;;5036015;28;20231;-53
2023/01/31 01:31:28;;;;;;;3.92;1.00;;;7.80;41.90;;;;;;5035962;28;20184;-54
2023/01/31 01:33:56;;;;;;;6.80;1.05;;;7.90;42.30;;;;;;5035398;28;20562;-54
2023/01/31 01:36:24;;;;;;;6.50;1.70;;;7.80;42.50;;;;;;5035731;28;20174;-53
2023/01/31 01:38:50;;;;;;;4.68;1.40;;;7.80;42.90;;;;;;5035510;28;20719;-52
2023/01/31 01:41:17;;;;;;;4.80;1.40;;;7.70;43.40;;;;;;5035512;28;20201;-54
2023/01/31 01:43:57;;;;;;;7.72;1.85;;;7.70;43.70;;;;;;5035340;28;20693;-52
2023/01/31 01:46:26;;;;;;;5.75;1.65;;;7.70;44.00;;;;;;5035784;28;20158;-54
2023/01/31 01:49:04;;;;;;;4.88;2.05;;;7.60;44.40;;;;;;5035388;28;20174;-52
2023/01/31 01:51:32;;;;;;;9.27;1.50;;;7.50;44.50;;;;;;5035273;28;20175;-54
2023/01/31 01:54:03;;;;;;;10.00;2.40;;;7.50;44.90;;;;;;5035058;28;20888;-52
2023/01/31 01:56:32;;;;;;;6.55;1.92;;;7.50;45.30;;;;;;5035496;28;20266;-55
2023/01/31 01:59:07;;;;;;;4.90;2.10;;;7.50;45.30;;;;;;5035332;28;20556;-52
2023/01/31 02:01:35;;;;;;;9.60;2.40;;;7.50;45.20;;;;;;5035058;28;20672;-54
2023/01/31 02:04:04;;;;;;;11.30;2.28;;;7.60;45.20;;;;;;5034747;28;20197;-54
2023/01/31 02:06:30;;;;;;;7.03;2.55;;;7.60;45.10;;;;;;5035080;28;20198;-51
2023/01/31 02:08:57;;;;;;;12.40;2.73;;;7.70;45.30;;;;;;5035201;28;20205;-55
2023/01/31 02:11:30;;;;;;;13.25;2.83;;;7.70;45.40;;;;;;5034990;28;20761;-53
2023/01/31 02:14:02;;;;;;;6.95;2.33;;;7.70;45.40;;;;;;5034749;28;20601;-52
2023/01/31 02:16:28;;;;;;;9.45;3.05;;;7.80;46.30;;;;;;5034790;28;20197;-52
2023/01/31 02:18:55;;;;;;;7.70;2.33;;;7.80;45.30;;;;;;5034835;28;20276;-54
2023/01/31 02:22:06;;;;;;;11.35;3.15;;;7.80;45.40;;;;;;5034712;28;20627;-51
2023/01/31 02:25:03;;;;;;;8.05;2.30;;;7.90;45.40;;;;;;5033227;28;20193;-55
2023/01/31 02:27:32;;;;;;;9.05;2.60;;;7.80;45.60;;;;;;5032894;28;20185;-52
2023/01/31 02:30:06;;;;;;;8.52;1.92;;;7.80;45.60;;;;;;5034842;28;20205;-51
2023/01/31 02:33:02;;;;;;;5.28;2.55;;;7.70;45.60;;;;;;5034756;28;20169;-54
2023/01/31 02:35:51;;;;;;;11.73;2.40;;;7.60;46.10;;;;;;5034218;28;20197;-52
2023/01/31 02:38:20;;;;;;;16.02;3.70;;;7.50;45.90;;;;;;5034650;28;20184;-56
2023/01/31 02:40:58;;;;;;;6.35;2.97;;;7.60;45.80;;;;;;5034330;28;20526;-51
2023/01/31 02:47:06;;;;;;;5.00;1.83;;;7.60;45.50;;;;;;5034683;28;20177;-54
2023/01/31 02:49:43;;;;;;;10.45;2.35;;;7.70;45.40;;;;;;5032926;28;20179;-52
2023/01/31 02:52:39;;;;;;;10.55;2.55;;;7.70;45.10;;;;;;5034205;28;20525;-54
2023/01/31 02:58:03;;;;;;;18.70;2.95;;;7.50;44.90;;;;;;5034274;28;20252;-51
2023/01/31 03:00:32;;;;;;;17.17;3.20;;;7.60;44.90;;;;;;5034264;28;20231;-52
2023/01/31 03:02:58;;;;;;;9.82;2.90;;;7.70;44.60;;;;;;5033980;28;20218;-52
2023/01/31 03:05:23;;;;;;;17.90;3.67;;;7.70;43.60;;;;;;5034049;28;20174;-51
2023/01/31 03:07:54;;;;;;;12.43;2.80;;;7.60;44.40;;;;;;5033994;28;20531;-51
2023/01/31 03:10:31;;;;;;;9.25;3.58;;;7.70;44.40;;;;;;5033997;28;20413;-54
2023/01/31 03:13:09;;;;;;;9.77;3.42;;;7.80;43.90;;;;;;5033635;28;20634;-52
2023/01/31 03:19:12;;;;;;;7.55;1.90;;;7.70;43.90;;;;;;5033997;28;20225;-54
2023/01/31 03:22:22;;;;;;;8.60;2.47;;;7.70;44.00;;;;;;5033561;28;20601;-53
2023/01/31 03:24:50;;;;;;;14.60;2.97;;;7.80;43.80;;;;;;5030938;28;20329;-52
2023/01/31 03:27:18;;;;;;;8.38;2.25;;;7.80;44.00;;;;;;5031164;28;20275;-54
2023/01/31 03:29:44;;;;;;;8.23;2.13;;;7.70;44.40;;;;;;5031158;28;20264;-51
2023/01/31 03:32:37;;;;;;;8.93;2.33;;;7.80;44.60;;;;;;5031072;28;20213;-55
2023/01/31 03:35:03;;;;;;;7.00;2.05;;;7.80;44.50;;;;;;5030850;28;20202;-52
2023/01/31 03:37:43;;;;;;;13.90;3.83;;;7.60;45.30;;;;;;5030755;28;20182;-54
2023/01/31 03:40:37;;;;;;;13.93;3.13;;;7.50;45.70;;;;;;5031056;28;20182;-51
2023/01/31 03:43:23;;;;;;;4.78;1.40;;;7.40;45.70;;;;;;5030744;28;20207;-55
2023/01/31 03:45:58;;;;;;;8.15;2.35;;;7.40;45.70;;;;;;5030779;28;20178;-52
2023/01/31 03:48:32;;;;;;;11.95;2.88;;;7.40;46.30;;;;;;5030891;28;20181;-55
2023/01/31 03:51:09;;;;;;;13.43;2.45;;;7.40;46.30;;;;;;5030806;28;20205;-52
2023/01/31 03:53:41;;;;;;;5.28;1.05;;;7.30;46.90;;;;;;5030648;28;20254;-53
2023/01/31 03:56:16;;;;;;;10.27;2.42;;;7.20;47.60;;;;;;5030573;28;20183;-55
2023/01/31 03:58:46;;;;;;;8.52;3.25;;;7.10;47.90;;;;;;5031624;28;20177;-51
2023/01/31 04:01:14;;;;;;;9.23;2.58;;;7.10;47.90;;;;;;5033040;28;20597;-56
2023/01/31 04:03:53;;;;;;;9.32;2.15;;;7.10;48.10;;;;;;5032683;28;20185;-55
2023/01/31 04:06:19;;;;;;;8.80;3.25;;;7.10;47.80;;;;;;5032950;28;20174;-51
2023/01/31 04:08:45;;;;;;;4.70;1.70;;;7.20;47.40;;;;;;5032934;28;20245;-55
2023/01/31 04:11:13;;;;;;;6.97;2.33;;;7.20;47.30;;;;;;5032956;28;20174;-53
2023/01/31 04:13:41;;;;;;;6.53;2.15;;;7.20;47.30;;;;;;5032530;28;20225;-52
2023/01/31 04:16:07;;;;;;;2.33;1.45;;;7.20;47.60;;;;;;5032619;28;20204;-51
2023/01/31 04:18:33;;;;;;;9.23;2.70;;;7.20;47.60;;;;;;5032731;28;20178;-53
2023/01/31 04:20:58;;;;;;;9.37;2.87;;;7.10;47.60;;;;;;5032546;28;20174;-55
2023/01/31 04:23:25;;;;;;;5.80;1.90;;;7.10;47.60;;;;;;5032402;28;20805;-52
2023/01/31 04:25:53;;;;;;;6.57;1.92;;;7.20;47.50;;;;;;5032548;28;20178;-51
2023/01/31 04:28:20;;;;;;;3.20;1.55;;;7.20;47.50;;;;;;5032713;28;20174;-55
2023/01/31 04:30:46;;;;;;;5.72;2.08;;;7.30;47.50;;;;;;5032429;28;20253;-53
2023/01/31 04:33:11;;;;;;;9.23;2.47;;;7.30;47.90;;;;;;5032170;28;20289;-54
2023/01/31 04:35:40;;;;;;;6.30;2.10;;;7.30;47.60;;;;;;5032319;28;20413;-54
2023/01/31 04:38:05;;;;;;;7.35;2.08;;;7.40;47.40;;;;;;5032308;28;20185;-52
2023/01/31 04:40:31;;;;;;;6.60;2.87;;;7.40;47.30;;;;;;5032532;28;20232;-56
2023/01/31 04:42:57;;;;;;;4.97;2.37;;;7.40;46.90;;;;;;5031988;28;20288;-53
2023/01/31 04:45:23;;;;;;;4.97;2.00;;;7.60;46.90;;;;;;5032284;28;20220;-51
2023/01/31 04:47:48;;;;;;;11.00;2.33;;;7.60;46.80;;;;;;5032181;28;20178;-55
2023/01/31 04:50:14;;;;;;;5.20;2.40;;;7.70;46.70;;;;;;5031569;28;20174;-54
2023/01/31 04:52:40;;;;;;;8.98;3.25;;;7.70;46.70;;;;;;5032000;28;20179;-52
2023/01/31 04:55:06;;;;;;;3.00;1.63;;;7.70;46.60;;;;;;5032087;28;20205;-52
2023/01/31 04:57:32;;;;;;;7.10;2.78;;;7.70;46.50;;;;;;5032069;28;20174;-55
2023/01/31 04:59:58;;;;;;;8.53;2.00;;;7.70;46.40;;;;;;5032209;28;20174;-54
2023/01/31 05:02:23;;;;;;;8.23;2.60;;;7.80;46.60;;;;;;5032184;28;20457;-52
2023/01/31 05:04:49;;;;;;;8.00;1.90;;;7.70;46.40;;;;;;5031746;28;20217;-54
2023/01/31 05:07:15;;;;;;;20.20;2.90;;;7.80;46.20;;;;;;5031843;28;20178;-56
2023/01/31 05:09:42;;;;;;;9.13;1.70;;;7.80;46.00;;;;;;5032143;28;20417;-53
2023/01/31 05:12:08;;;;;;;5.85;2.88;;;7.80;46.10;;;;;;5032152;28;20541;-53
2023/01/31 05:14:34;;;;;;;2.60;1.20;;;7.90;45.80;;;;;;5031900;28;20198;-54
2023/01/31 05:16:59;;;;;;;13.20;2.67;;;8.00;45.80;;;;;;5031826;28;20201;-55
2023/01/31 05:19:25;;;;;;;8.37;3.00;;;7.90;44.80;;;;;;5032157;28;20177;-52
2023/01/31 05:21:54;;;;;;;6.00;2.00;;;7.90;45.40;;;;;;5031720;28;20643;-52
2023/01/31 05:24:23;;;;;;;10.45;2.70;;;7.90;45.40;;;;;;5031606;28;20225;-53
2023/01/31 05:26:51;;;;;;;5.57;2.03;;;7.90;45.40;;;;;;5031830;28;20204;-52
2023/01/31 05:29:17;;;;;;;15.82;2.55;;;7.90;44.80;;;;;;5031801;28;20256;-54
2023/01/31 05:31:43;;;;;;;11.82;2.58;;;7.90;45.30;;;;;;5031821;28;20189;-55
2023/01/31 05:34:13;;;;;;;5.97;2.58;;;8.00;45.10;;;;;;5031796;28;20194;-51
2023/01/31 05:36:40;;;;;;;10.23;2.40;;;8.00;45.00;;;;;;5032182;28;20189;-51
2023/01/31 05:39:06;;;;;;;4.57;1.73;;;8.00;44.90;;;;;;5031867;28;20184;-52
2023/01/31 05:41:32;;;;;;;7.40;2.20;;;8.00;45.00;;;;;;5031662;28;20558;-55
2023/01/31 05:43:58;;;;;;;14.37;3.00;;;8.00;45.00;;;;;;5031504;28;20186;-52
2023/01/31 05:46:23;;;;;;;20.90;2.70;;;8.00;44.80;;;;;;5031704;28;20170;-56
2023/01/31 05:48:49;;;;;;;11.23;2.30;;;8.00;44.90;;;;;;5031546;28;20614;-56
2023/01/31 05:51:15;;;;;;;13.83;2.60;;;8.00;45.00;;;;;;5031546;28;20232;-52
2023/01/31 05:53:40;;;;;;;8.80;2.27;;;8.10;45.10;;;;;;5031455;28;20251;-52
2023/01/31 05:56:06;;;;;;;8.10;2.30;;;8.10;45.00;;;;;;5031733;28;20182;-55
2023/01/31 05:58:32;;;;;;;8.37;3.07;;;8.10;44.90;;;;;;5031663;28;20682;-52
2023/01/31 06:00:58;;;;;;;10.37;3.90;;;8.10;45.00;;;;;;5033443;28;20400;-52
2023/01/31 06:03:23;;;;;;;8.53;3.50;;;8.10;45.00;;;;;;5034934;28;20438;-54
2023/01/31 06:05:49;;;;;;;5.23;1.93;;;8.20;45.00;;;;;;5035155;28;20231;-56
2023/01/31 06:08:16;;;;;;;5.37;2.47;;;8.10;45.10;;;;;;5035034;28;20642;-52
2023/01/31 06:10:42;;;;;;;6.25;3.50;;;8.00;45.40;;;;;;5034988;28;20197;-56
2023/01/31 06:13:08;;;;;;;14.30;2.80;;;8.00;45.50;;;;;;5034851;28;20240;-52
2023/01/31 06:15:34;;;;;;;5.70;2.20;;;8.00;45.70;;;;;;5034584;28;20420;-53
2023/01/31 06:17:59;;;;;;;10.60;2.90;;;8.00;45.70;;;;;;5035213;28;20216;-55
2023/01/31 06:20:25;;;;;;;5.80;1.80;;;7.90;45.60;;;;;;5034862;28;20397;-52
2023/01/31 06:22:51;;;;;;;6.90;2.80;;;7.90;45.60;;;;;;5034719;28;20201;-52
2023/01/31 06:25:17;;;;;;;7.60;2.47;;;7.90;45.70;;;;;;5034748;28;20626;-56
2023/01/31 06:27:43;;;;;;;5.57;2.67;;;7.90;45.80;;;;;;5034838;28;20796;-52
2023/01/31 06:30:10;;;;;;;3.90;2.33;;;7.80;45.70;;;;;;5034689;28;20890;-52
2023/01/31 06:32:36;;;;;;;9.90;2.28;;;7.80;46.10;;;;;;5034505;28;20412;-55
2023/01/31 06:35:03;;;;;;;9.10;3.08;;;7.90;46.80;;;;;;5034289;28;20561;-55
2023/01/31 06:37:29;;;;;;;15.98;3.45;;;7.90;45.90;;;;;;5034575;28;20273;-53
2023/01/31 06:39:54;;;;;;;12.03;2.77;;;8.00;45.70;;;;;;5034585;28;20202;-54
2023/01/31 06:42:20;;;;;;;6.63;2.30;;;8.00;45.80;;;;;;5034431;28;20456;-54
2023/01/31 06:44:46;;;;;;;5.83;2.03;;;7.90;45.70;;;;;;5034131;28;20594;-52
2023/01/31 06:47:12;;;;;;;11.33;3.03;;;7.70;46.80;;;;;;5034372;28;20173;-52
2023/01/31 06:49:38;;;;;;;8.27;2.10;;;7.60;47.30;;;;;;5034504;28;20182;-57
2023/01/31 06:52:04;;;;;;;9.80;2.63;;;7.60;47.80;;;;;;5034238;28;20265;-53
2023/01/31 06:54:30;;;;;;;10.47;3.03;;;7.60;47.60;;;;;;5033909;28;20429;-53
2023/01/31 06:56:56;;;;;;;9.47;2.63;;;7.70;47.60;;;;;;5034514;28;20924;-55
2023/01/31 06:59:21;;;;;;;10.13;2.30;;;7.70;47.40;;;;;;5034221;28;20661;-54
2023/01/31 07:01:47;;;;;;;6.53;2.87;;;7.70;47.40;;;;;;5033944;28;20456;-56
2023/01/31 07:04:13;;;;;;;5.10;1.93;;;7.70;47.20;;;;;;5033737;28;20716;-56
2023/01/31 07:06:39;;;;;;;7.33;2.63;;;7.70;47.10;;;;;;5034074;28;20408;-53
2023/01/31 07:09:04;;;;;;;8.27;2.90;;;7.70;47.10;;;;;;5034247;28;20531;-56
2023/01/31 07:11:30;;;;;;;9.20;2.70;;;7.80;47.00;;;;;;5033463;28;20224;-56
2023/01/31 07:13:56;;;;;;;10.80;3.27;;;7.80;46.70;;;;;;5033499;28;20202;-52
2023/01/31 07:16:24;;;;;;;10.50;2.73;;;7.80;46.70;;;;;;5033723;28;20806;-52
2023/01/31 07:18:53;;;;;;;8.20;2.80;;;7.80;46.70;;;;;;5033655;28;20503;-52
2023/01/31 07:21:19;;;;;;;4.65;2.90;;;7.80;46.30;;;;;;5033637;28;20680;-53
2023/01/31 07:23:45;;;;;;;8.98;3.22;;;7.80;47.40;;;;;;5033517;28;20228;-52
2023/01/31 07:26:11;;;;;;;15.03;2.23;;;7.80;46.50;;;;;;5033578;28;20198;-57
2023/01/31 07:28:37;;;;;;;7.77;2.77;;;7.80;46.80;;;;;;5033528;28;20174;-52
2023/01/31 07:31:04;;;;;;;9.60;2.23;;;7.80;46.00;;;;;;5033713;28;20166;-53
2023/01/31 07:33:31;;;;;;;8.00;2.75;;;7.70;46.80;;;;;;5033539;28;20190;-56
2023/01/31 07:35:57;;;;;;;5.65;2.53;;;7.70;46.90;;;;;;5033352;28;20584;-56
2023/01/31 07:38:22;;;;;;;13.20;2.90;;;7.70;46.70;;;;;;5033578;28;20182;-53
2023/01/31 07:40:48;;;;;;;7.90;3.10;;;7.80;46.50;;;;;;5033373;28;20249;-54
2023/01/31 07:43:14;;;;;;;13.93;2.60;;;7.90;46.40;;;;;;5033061;28;20565;-56
2023/01/31 07:45:41;;;;;;;9.93;2.30;;;7.90;46.30;;;;;;5033071;28;20182;-52
2023/01/31 07:48:07;;;;;;;5.97;2.15;;;7.80;46.20;;;;;;5033380;28;20178;-55
2023/01/31 07:50:33;;;;;;;5.57;2.80;;;7.80;46.50;;;;;;5033202;28;20659;-52
2023/01/31 07:52:58;;;;;;;12.03;4.00;;;7.70;46.60;;;;;;5033064;28;20421;-52
2023/01/31 07:55:25;;;;;;;7.80;2.40;;;7.60;47.20;;;;;;5033397;28;20181;-55
2023/01/31 07:57:51;;;;;;;7.32;2.42;;;7.70;47.20;;;;;;5033019;28;20176;-58
2023/01/31 08:05:48;;;;;;;12.10;2.60;;;7.60;47.20;;;;;;5033072;28;20191;-55
2023/01/31 08:08:14;;;;;;;7.70;2.40;;;7.60;47.60;;;;;;5032804;28;20180;-52
2023/01/31 08:10:40;;;;;;;11.43;4.67;;;7.60;47.90;;;;;;5032930;28;20411;-54
2023/01/31 08:13:05;;;;;;;4.23;1.70;;;7.70;47.90;;;;;;5032699;28;20618;-55
2023/01/31 08:15:32;;;;;;;4.90;2.37;;;7.80;47.60;;;;;;5032626;28;20174;-52
2023/01/31 08:17:58;;;;;;;17.38;2.65;;;8.00;46.90;;;;;;5032926;28;20158;-52
2023/01/31 08:20:24;;;;;;;16.23;3.20;;;8.10;46.80;;;;;;5032614;28;20708;-57
2023/01/31 08:22:49;;;;;;;5.43;1.93;;;8.20;46.30;;;;;;5032464;28;20198;-51
2023/01/31 08:25:15;;;;;;;10.50;3.30;;;8.40;46.70;;;;;;5031702;28;20182;-52
2023/01/31 08:27:41;;;;;;;11.03;2.20;;;8.50;45.40;;;;;;5032741;28;20177;-57
2023/01/31 08:30:07;;;;;;;8.40;1.93;;;8.60;44.60;;;;;;5032475;28;20177;-51
2023/01/31 08:32:33;;;;;;;8.55;2.08;;;8.60;44.10;;;;;;5032495;28;20257;-53
2023/01/31 08:34:59;;;;;;;6.00;2.20;;;8.60;44.30;;;;;;5032208;28;20221;-54
2023/01/31 08:37:25;;;;;;;5.63;1.80;;;8.60;43.90;;;;;;5032603;28;20185;-53
2023/01/31 08:39:50;;;;;;;5.23;3.70;;;8.70;43.80;;;;;;5032365;28;20179;-51
2023/01/31 08:42:16;;;;;;;6.50;2.20;;;8.70;43.30;;;;;;5032277;28;20654;-56
2023/01/31 08:44:42;;;;;;;5.67;1.60;;;8.40;43.10;;;;;;5032144;28;20200;-52
2023/01/31 08:47:08;;;;;;;6.43;2.00;;;8.40;43.20;;;;;;5032552;28;20191;-52
2023/01/31 08:49:35;;;;;;;8.97;1.83;;;8.50;43.00;;;;;;5032497;28;20181;-53
2023/01/31 08:52:01;;;;;;;7.53;2.92;;;8.60;43.10;;;;;;5032543;28;20250;-51
2023/01/31 08:54:27;;;;;;;3.10;1.67;;;8.60;42.30;;;;;;5032039;28;20290;-55
2023/01/31 08:56:53;;;;;;;5.13;1.87;;;8.60;42.10;;;;;;5032042;28;20172;-53
2023/01/31 08:59:18;;;;;;;13.30;2.17;;;8.40;41.50;;;;;;5032126;28;20869;-54
2023/01/31 09:01:45;;;;;;;13.33;3.07;;;8.40;41.50;;;;;;5031997;28;20193;-56
2023/01/31 09:04:11;;;;;;;15.20;2.60;;;8.40;42.50;;;;;;5031841;28;20535;-52
2023/01/31 09:06:37;;;;;;;16.63;2.83;;;8.40;42.50;;;;;;5032000;28;20181;-53
2023/01/31 09:09:03;;;;;;;6.13;2.20;;;8.60;42.00;;;;;;5032182;28;20408;-55
2023/01/31 09:11:29;;;;;;;5.67;1.90;;;8.60;41.30;;;;;;5031907;28;20180;-52
2023/01/31 09:13:55;;;;;;;8.77;2.17;;;8.60;41.50;;;;;;5031591;28;20862;-51
2023/01/31 09:16:20;;;;;;;6.13;1.67;;;8.80;41.00;;;;;;5032031;28;20197;-57
2023/01/31 09:18:47;;;;;;;7.57;1.90;;;8.80;40.40;;;;;;5031857;28;20465;-52
2023/01/31 09:21:18;;;;;;;7.45;2.70;;;8.70;39.80;;;;;;5031853;28;20516;-52
2023/01/31 09:23:44;;;;;;;7.45;2.20;;;8.80;40.30;;;;;;5031642;28;20197;-53
2023/01/31 09:26:11;;;;;;;9.38;3.55;;;9.00;40.50;;;;;;5031906;28;20176;-58
2023/01/31 09:28:38;;;;;;;8.38;2.42;;;9.10;40.70;;;;;;5031886;28;20538;-52
2023/01/31 09:31:07;;;;;;;5.35;2.10;;;9.30;39.90;;;;;;5031766;28;20530;-50
2023/01/31 09:33:34;;;;;;;4.72;1.77;;;9.40;39.60;;;;;;5031697;28;20208;-56
2023/01/31 09:36:05;;;;;;;10.10;2.10;;;9.60;39.40;;;;;;5034206;28;20171;-58
2023/01/31 09:38:31;;;;;;;7.40;2.08;;;9.70;38.20;;;;;;5035727;28;20739;-51
2023/01/31 09:41:00;;;;;;;11.02;1.80;;;9.60;38.20;;;;;;5035541;28;20209;-55
2023/01/31 09:43:33;;;;;;;8.32;2.30;;;9.50;37.70;;;;;;5035380;28;20212;-52
2023/01/31 09:46:02;;;;;;;3.80;2.20;;;9.60;38.40;;;;;;5035420;28;20693;-52
2023/01/31 09:48:35;;;;;;;6.70;3.13;;;9.70;38.40;;;;;;5035316;28;20174;-56
2023/01/31 09:51:03;;;;;;;3.33;1.40;;;9.70;37.10;;;;;;5035441;28;20158;-57
2023/01/31 09:53:33;;;;;;;9.18;2.47;;;9.60;38.20;;;;;;5035270;28;20197;-52
2023/01/31 09:56:28;;;;;;;3.53;1.33;;;9.70;38.90;;;;;;5035556;28;20227;-53
2023/01/31 09:59:12;;;;;;;3.05;1.75;;;9.70;37.90;;;;;;5035141;28;20239;-53
2023/01/31 10:01:54;;;;;;;7.68;2.13;;;9.70;37.90;;;;;;5035184;28;20660;-55
2023/01/31 10:04:43;;;;;;;14.18;3.28;;;9.80;37.80;;;;;;5034924;28;20197;-53
2023/01/31 10:07:24;;;;;;;8.05;1.88;;;10.00;38.80;;;;;;5035129;28;20177;-55
2023/01/31 10:10:09;;;;;;;3.83;1.73;;;10.30;36.90;;;;;;5035048;28;20654;-52
2023/01/31 10:12:49;;;;;;;5.18;2.50;;;10.10;38.30;;;;;;5035061;28;20206;-53
2023/01/31 10:15:27;;;;;;;6.38;1.88;;;10.20;37.50;;;;;;5034826;28;20184;-52
2023/01/31 10:18:01;;;;;;;8.43;2.70;;;9.90;37.30;;;;;;5034890;28;20178;-54
2023/01/31 10:20:45;;;;;;;6.25;3.35;;;9.70;37.70;;;;;;5035235;28;20166;-55
2023/01/31 10:23:11;;;;;;;7.00;2.17;;;9.50;38.20;;;;;;5034603;28;20210;-56
2023/01/31 10:26:00;;;;;;;4.10;2.17;;;9.50;38.70;;;;;;5034634;28;20173;-55
2023/01/31 10:28:42;;;;;;;4.85;1.88;;;9.50;38.60;;;;;;5035057;28;20170;-51
2023/01/31 10:31:27;;;;;;;4.90;1.83;;;9.50;38.70;;;;;;5034763;28;20153;-53
2023/01/31 10:33:59;;;;;;;5.38;2.00;;;9.60;38.00;;;;;;5034537;28;20189;-51
2023/01/31 10:36:32;;;;;;;3.38;1.15;;;9.70;37.20;;;;;;5034572;28;20176;-58
2023/01/31 10:39:07;;;;;;;7.32;2.05;;;9.60;37.30;;;;;;5034724;28;20177;-51
2023/01/31 10:42:06;;;;;;;6.15;1.77;;;9.60;36.90;;;;;;5034589;28;20204;-55
2023/01/31 10:44:46;;;;;;;7.05;2.47;;;9.40;37.50;;;;;;5033051;28;20720;-54
2023/01/31 10:47:17;;;;;;;8.40;2.53;;;9.40;37.90;;;;;;5033423;28;20223;-55
2023/01/31 10:49:47;;;;;;;5.85;2.10;;;9.60;37.10;;;;;;5034416;28;20174;-57
2023/01/31 10:52:39;;;;;;;9.13;1.50;;;9.60;36.90;;;;;;5034350;28;20576;-51
2023/01/31 10:55:05;;;;;;;4.40;2.03;;;9.60;37.30;;;;;;5033938;28;20717;-53
2023/01/31 10:57:31;;;;;;;6.60;2.73;;;9.70;37.20;;;;;;5034226;28;20173;-52
2023/01/31 10:59:57;;;;;;;8.20;2.88;;;9.60;36.60;;;;;;5034171;28;20175;-55
2023/01/31 11:02:26;;;;;;;4.53;2.30;;;9.30;37.10;;;;;;5034112;28;20208;-54
2023/01/31 11:04:54;;;;;;;4.97;2.03;;;8.40;37.70;;;;;;5033853;28;20420;-52
2023/01/31 11:07:20;;;;;;;9.15;2.20;;;9.40;38.20;;;;;;5034068;28;20206;-54
2023/01/31 11:09:53;;;;;;;5.10;1.95;;;9.50;36.40;;;;;;5033830;28;20177;-52
2023/01/31 11:12:40;;;;;;;8.90;2.53;;;9.50;37.30;;;;;;5034004;28;20162;-55
2023/01/31 11:15:15;;;;;;;7.35;2.17;;;9.50;37.00;;;;;;5033582;28;20202;-56
2023/01/31 11:17:43;;;;;;;4.03;1.90;;;9.30;37.00;;;;;;5033829;28;20522;-52
2023/01/31 11:20:26;;;;;;;7.30;2.17;;;9.10;37.10;;;;;;5033682;28;20708;-57
2023/01/31 11:22:54;;;;;;;5.28;1.80;;;9.10;37.40;;;;;;5033745;28;20212;-51
2023/01/31 11:25:22;;;;;;;9.55;2.03;;;9.20;37.30;;;;;;5033527;28;20167;-53
2023/01/31 11:27:51;;;;;;;7.72;2.45;;;9.30;37.20;;;;;;5033557;28;20184;-54
2023/01/31 11:30:34;;;;;;;7.78;2.53;;;9.50;37.30;;;;;;5033677;28;20172;-51
2023/01/31 11:33:00;;;;;;;8.68;1.77;;;9.50;36.50;;;;;;5033330;28;20670;-54
2023/01/31 11:35:32;;;;;;;7.38;1.92;;;9.50;36.80;;;;;;5033525;28;20223;-52
2023/01/31 11:38:09;;;;;;;8.45;2.45;;;9.50;37.40;;;;;;5033417;28;20210;-55
2023/01/31 11:40:37;;;;;;;9.15;2.95;;;9.60;36.70;;;;;;5033384;28;20591;-51
2023/01/31 11:43:06;;;;;;;4.93;2.70;;;9.60;36.60;;;;;;5033090;28;20650;-52
2023/01/31 11:45:41;;;;;;;4.57;2.13;;;9.60;36.90;;;;;;5033405;28;20182;-54
2023/01/31 11:48:18;;;;;;;6.40;2.33;;;9.70;36.10;;;;;;5033280;28;20174;-53
2023/01/31 11:50:50;;;;;;;4.68;2.33;;;9.80;36.40;;;;;;5033206;28;20202;-53
2023/01/31 11:53:23;;;;;;;8.02;2.70;;;9.80;36.90;;;;;;5033013;28;20204;-54
2023/01/31 11:55:51;;;;;;;5.68;2.00;;;9.90;36.20;;;;;;5033003;28;20185;-55
2023/01/31 11:58:23;;;;;;;9.35;2.67;;;9.70;36.40;;;;;;5032843;28;20209;-52
2023/01/31 12:01:05;;;;;;;6.05;2.90;;;9.90;36.80;;;;;;5033184;28;20176;-54
2023/01/31 12:03:32;;;;;;;8.38;3.60;;;10.10;36.80;;;;;;5032792;28;20210;-53
2023/01/31 12:06:07;;;;;;;7.90;2.33;;;10.30;35.40;;;;;;5032604;28;20211;-56
2023/01/31 12:08:40;;;;;;;4.53;2.30;;;10.50;35.80;;;;;;5032984;28;20211;-56
2023/01/31 12:11:05;;;;;;;6.43;2.75;;;10.60;34.90;;;;;;5033065;28;20177;-52
2023/01/31 12:13:51;;;;;;;8.07;2.70;;;10.60;34.80;;;;;;5032702;28;20204;-57
2023/01/31 12:16:23;;;;;;;6.05;2.10;;;10.60;36.00;;;;;;5032598;28;20186;-56
2023/01/31 12:19:08;;;;;;;7.43;2.33;;;10.50;34.70;;;;;;5032730;28;20260;-52
2023/01/31 12:21:47;;;;;;;10.27;3.33;;;10.40;34.70;;;;;;5032624;28;20203;-55
2023/01/31 12:24:40;;;;;;;7.35;2.90;;;10.30;35.10;;;;;;5032275;28;20252;-51
2023/01/31 12:27:32;;;;;;;10.25;2.50;;;10.30;36.10;;;;;;5032466;28;20183;-56
2023/01/31 12:30:02;;;;;;;5.07;2.38;;;10.30;35.90;;;;;;5032556;28;20169;-53
2023/01/31 12:32:48;;;;;;;11.63;2.95;;;10.40;35.60;;;;;;5032493;28;20649;-54
2023/01/31 12:35:32;;;;;;;6.75;3.08;;;10.50;35.70;;;;;;5032166;28;20261;-52
2023/01/31 12:37:58;;;;;;;4.07;2.25;;;10.50;35.50;;;;;;5032486;28;20180;-54
2023/01/31 12:40:41;;;;;;;8.13;3.07;;;10.20;35.50;;;;;;5032396;28;20589;-52
2023/01/31 12:43:23;;;;;;;5.03;2.88;;;10.00;36.30;;;;;;5032094;28;20653;-57
2023/01/31 12:46:02;;;;;;;10.73;2.50;;;10.00;36.30;;;;;;5032373;28;20177;-52
2023/01/31 12:48:34;;;;;;;7.35;2.65;;;9.70;37.30;;;;;;5032265;28;20180;-56
2023/01/31 12:51:41;;;;;;;4.90;2.75;;;9.40;38.90;;;;;;5032251;28;20182;-51
2023/01/31 12:54:57;;;;;;;10.77;3.20;;;9.30;40.00;;;;;;5031934;28;20198;-55
2023/01/31 12:57:52;;;;;;;5.00;2.45;;;9.10;40.70;;;;;;5031955;28;20189;-51
2023/01/31 13:00:41;;;;;;;7.95;2.97;;;9.10;40.90;;;;;;5032102;28;20182;-52
2023/01/31 13:03:18;;;;;;;11.77;4.30;;;9.10;40.60;;;;;;5031889;28;20197;-55
2023/01/31 13:06:00;;;;;;;5.15;3.10;;;9.20;40.60;;;;;;5031932;28;20180;-53
2023/01/31 13:08:28;;;;;;;7.22;3.15;;;9.30;40.70;;;;;;5032000;28;20189;-50
2023/01/31 13:11:30;;;;;;;9.77;3.80;;;9.10;39.70;;;;;;5036525;28;20180;-54
2023/01/31 13:14:00;;;;;;;4.07;2.95;;;9.00;40.70;;;;;;5037027;28;20251;-54
2023/01/31 13:16:33;;;;;;;12.75;4.07;;;9.10;40.70;;;;;;5038605;28;20372;-52
2023/01/31 13:19:12;;;;;;;6.22;3.08;;;9.30;40.90;;;;;;5038655;28;20186;-54
2023/01/31 13:21:44;;;;;;;7.13;3.13;;;9.40;39.90;;;;;;5038393;28;20713;-51
2023/01/31 13:24:33;;;;;;;6.55;3.17;;;9.40;40.50;;;;;;5038346;28;20534;-52
2023/01/31 13:27:05;;;;;;;7.43;3.65;;;9.40;40.20;;;;;;5038460;28;20209;-56